createdAt,value
2018-07-25T00:00:23.212Z,14.5
2018-07-25T00:01:24.760Z,14.5
2018-07-25T00:02:26.311Z,14.6
2018-07-25T00:03:27.522Z,14.5
2018-07-25T00:04:29.074Z,14.5
2018-07-25T00:05:30.469Z,14.5
2018-07-25T00:06:32.013Z,14.6
2018-07-25T00:07:33.392Z,14.5
2018-07-25T00:08:34.775Z,14.4
2018-07-25T00:09:36.328Z,14.5
2018-07-25T00:10:37.872Z,14.5
2018-07-25T00:11:39.424Z,14.5
2018-07-25T00:12:40.794Z,14.5
2018-07-25T00:13:42.179Z,14.5
2018-07-25T00:14:43.562Z,14.5
2018-07-25T00:15:44.936Z,14.5
2018-07-25T00:16:46.320Z,14.5
2018-07-25T00:17:47.693Z,14.5
2018-07-25T00:18:49.243Z,14.5
2018-07-25T00:19:50.468Z,14.5
2018-07-25T00:20:52.014Z,14.5
2018-07-25T00:21:53.555Z,14.5
2018-07-25T00:22:54.942Z,14.5
2018-07-25T00:23:56.488Z,14.5
2018-07-25T00:24:58.038Z,14.5
2018-07-25T00:25:59.417Z,14.5
2018-07-25T00:27:00.799Z,14.5
2018-07-25T00:28:02.368Z,14.5
2018-07-25T00:29:03.912Z,14.5
2018-07-25T00:30:05.312Z,14.5
2018-07-25T00:31:06.839Z,14.5
2018-07-25T00:32:08.384Z,14.5
2018-07-25T00:33:09.960Z,14.5
2018-07-25T00:34:11.329Z,14.5
2018-07-25T00:35:12.701Z,14.5
2018-07-25T00:36:14.278Z,14.5
2018-07-25T00:37:15.849Z,14.4
2018-07-25T00:38:17.064Z,14.5
2018-07-25T00:39:18.606Z,14.5
2018-07-25T00:40:19.991Z,14.5
2018-07-25T00:41:21.215Z,14.5
2018-07-25T00:42:22.761Z,14.5
2018-07-25T00:43:24.319Z,14.5
2018-07-25T00:44:25.696Z,14.5
2018-07-25T00:45:27.243Z,14.5
2018-07-25T00:46:28.783Z,14.5
2018-07-25T00:47:30.327Z,14.5
2018-07-25T00:48:31.859Z,14.5
2018-07-25T00:49:33.063Z,14.5
2018-07-25T00:50:34.112Z,14.4
2018-07-25T00:51:35.656Z,14.4
2018-07-25T00:52:37.181Z,14.4
2018-07-25T00:53:38.574Z,14.4
2018-07-25T00:54:39.856Z,14.4
2018-07-25T00:55:41.075Z,14.4
2018-07-25T00:56:42.450Z,14.3
2018-07-25T00:57:44.011Z,14.4
2018-07-25T00:58:45.553Z,14.4
2018-07-25T00:59:47.095Z,14.4
2018-07-25T01:00:48.665Z,14.5
2018-07-25T01:01:50.067Z,14.4
2018-07-25T01:02:51.431Z,14.4
2018-07-25T01:03:52.653Z,14.4
2018-07-25T01:04:54.199Z,14.4
2018-07-25T01:05:55.725Z,14.4
2018-07-25T01:06:56.935Z,14.4
2018-07-25T01:07:58.333Z,14.4
2018-07-25T01:08:59.771Z,14.4
2018-07-25T01:10:01.157Z,14.4
2018-07-25T01:11:02.709Z,14.4
2018-07-25T01:12:03.928Z,14.4
2018-07-25T01:13:05.476Z,14.4
2018-07-25T01:14:07.022Z,14.5
2018-07-25T01:15:08.574Z,14.4
2018-07-25T01:16:09.965Z,14.5
2018-07-25T01:17:11.520Z,14.5
2018-07-25T01:18:13.256Z,14.5
2018-07-25T01:19:14.465Z,14.4
2018-07-25T01:20:15.678Z,14.4
2018-07-25T01:21:17.052Z,14.5
2018-07-25T01:22:18.603Z,14.4
2018-07-25T01:23:20.146Z,14.5
2018-07-25T01:24:21.695Z,14.4
2018-07-25T01:25:23.237Z,14.4
2018-07-25T01:26:24.615Z,14.5
2018-07-25T01:27:26.183Z,14.5
2018-07-25T01:28:27.575Z,14.5
2018-07-25T01:29:29.119Z,14.5
2018-07-25T01:30:30.328Z,14.5
2018-07-25T01:31:31.546Z,14.5
2018-07-25T01:32:32.917Z,14.5
2018-07-25T01:33:34.304Z,14.5
2018-07-25T01:34:35.509Z,14.5
2018-07-25T01:35:37.053Z,14.5
2018-07-25T01:36:38.588Z,14.5
2018-07-25T01:37:40.140Z,14.5
2018-07-25T01:38:41.525Z,14.5
2018-07-25T01:39:42.915Z,14.5
2018-07-25T01:40:44.285Z,14.5
2018-07-25T01:41:45.323Z,14.5
2018-07-25T01:42:46.532Z,14.5
2018-07-25T01:43:47.583Z,14.5
2018-07-25T01:44:49.130Z,14.5
2018-07-25T01:45:50.665Z,14.4
2018-07-25T01:46:52.200Z,14.4
2018-07-25T01:47:53.575Z,14.5
2018-07-25T01:48:55.128Z,14.5
2018-07-25T01:49:56.333Z,14.5
2018-07-25T01:50:57.384Z,14.5
2018-07-25T01:51:58.578Z,14.5
2018-07-25T01:52:59.794Z,14.5
2018-07-25T01:54:01.186Z,14.5
2018-07-25T01:55:02.568Z,14.5
2018-07-25T01:56:04.115Z,14.5
2018-07-25T01:57:05.492Z,14.4
2018-07-25T01:58:06.866Z,14.5
2018-07-25T01:59:08.237Z,14.5
2018-07-25T02:00:09.616Z,14.5
2018-07-25T02:01:11.156Z,14.5
2018-07-25T02:02:12.365Z,14.4
2018-07-25T02:03:13.748Z,14.6
2018-07-25T02:04:15.299Z,14.5
2018-07-25T02:05:16.494Z,14.5
2018-07-25T02:06:18.037Z,14.5
2018-07-25T02:07:19.413Z,14.5
2018-07-25T02:08:20.959Z,14.5
2018-07-25T02:09:23.104Z,14.5
2018-07-25T02:10:24.470Z,14.5
2018-07-25T02:11:25.836Z,14.6
2018-07-25T02:12:27.385Z,14.5
2018-07-25T02:13:28.928Z,14.6
2018-07-25T02:14:30.304Z,14.6
2018-07-25T02:15:31.858Z,14.5
2018-07-25T02:16:33.071Z,14.5
2018-07-25T02:17:34.447Z,14.5
2018-07-25T02:18:35.985Z,14.5
2018-07-25T02:19:37.199Z,14.5
2018-07-25T02:20:38.579Z,14.5
2018-07-25T02:21:39.798Z,14.5
2018-07-25T02:22:41.184Z,14.6
2018-07-25T02:23:42.738Z,14.5
2018-07-25T02:24:44.105Z,14.5
2018-07-25T02:25:45.307Z,14.5
2018-07-25T02:26:46.852Z,14.5
2018-07-25T02:27:48.384Z,14.5
2018-07-25T02:28:49.753Z,14.6
2018-07-25T02:29:51.126Z,14.5
2018-07-25T02:30:52.656Z,14.5
2018-07-25T02:31:54.041Z,14.5
2018-07-25T02:32:55.265Z,14.5
2018-07-25T02:33:56.660Z,14.6
2018-07-25T02:34:58.069Z,14.5
2018-07-25T02:35:59.447Z,14.6
2018-07-25T02:37:00.675Z,14.5
2018-07-25T02:38:02.254Z,14.5
2018-07-25T02:39:03.465Z,14.5
2018-07-25T02:40:04.858Z,14.5
2018-07-25T02:41:06.224Z,14.5
2018-07-25T02:42:07.787Z,14.5
2018-07-25T02:43:08.990Z,14.6
2018-07-25T02:44:10.531Z,14.6
2018-07-25T02:45:12.067Z,14.5
2018-07-25T02:46:13.441Z,14.7
2018-07-25T02:47:14.491Z,14.6
2018-07-25T02:48:15.708Z,14.6
2018-07-25T02:49:17.270Z,14.7
2018-07-25T02:50:18.822Z,14.5
2018-07-25T02:51:20.207Z,14.5
2018-07-25T02:52:21.624Z,14.6
2018-07-25T02:53:23.013Z,14.6
2018-07-25T02:54:24.547Z,14.5
2018-07-25T02:55:25.597Z,14.6
2018-07-25T02:56:26.974Z,14.6
2018-07-25T02:57:28.515Z,14.6
2018-07-25T02:58:30.076Z,14.6
2018-07-25T02:59:31.475Z,14.6
2018-07-25T03:00:32.854Z,14.6
2018-07-25T03:01:34.246Z,14.6
2018-07-25T03:02:35.805Z,14.5
2018-07-25T03:03:37.363Z,14.5
2018-07-25T03:04:38.593Z,14.5
2018-07-25T03:05:39.985Z,14.7
2018-07-25T03:06:41.378Z,14.6
2018-07-25T03:07:42.968Z,14.5
2018-07-25T03:08:44.523Z,14.5
2018-07-25T03:09:45.903Z,14.7
2018-07-25T03:10:46.949Z,14.7
2018-07-25T03:11:48.350Z,14.5
2018-07-25T03:12:49.736Z,14.7
2018-07-25T03:13:51.115Z,14.6
2018-07-25T03:14:52.228Z,14.7
2018-07-25T03:15:53.606Z,14.5
2018-07-25T03:16:55.005Z,14.6
2018-07-25T03:17:56.614Z,14.6
2018-07-25T03:18:57.833Z,14.5
2018-07-25T03:19:59.458Z,14.5
2018-07-25T03:21:01.014Z,14.5
2018-07-25T03:22:02.432Z,14.5
2018-07-25T03:23:03.653Z,14.5
2018-07-25T03:24:04.858Z,14.5
2018-07-25T03:25:06.414Z,14.5
2018-07-25T03:26:07.950Z,14.5
2018-07-25T03:27:09.352Z,14.6
2018-07-25T03:28:10.910Z,14.5
2018-07-25T03:29:12.134Z,14.6
2018-07-25T03:30:13.505Z,14.8
2018-07-25T03:31:15.061Z,14.6
2018-07-25T03:32:16.706Z,14.6
2018-07-25T03:33:18.087Z,14.5
2018-07-25T03:34:18.977Z,14.5
2018-07-25T03:35:20.538Z,14.5
2018-07-25T03:36:21.925Z,14.6
2018-07-25T03:37:23.360Z,14.5
2018-07-25T03:38:24.722Z,14.6
2018-07-25T03:39:26.266Z,14.6
2018-07-25T03:40:27.674Z,14.5
2018-07-25T03:41:29.052Z,14.7
2018-07-25T03:42:30.288Z,14.6
2018-07-25T03:43:31.863Z,14.7
2018-07-25T03:44:33.413Z,14.6
2018-07-25T03:45:34.806Z,14.7
2018-07-25T03:46:36.188Z,14.7
2018-07-25T03:47:37.618Z,14.7
2018-07-25T03:48:38.983Z,14.7
2018-07-25T03:49:40.510Z,14.6
2018-07-25T03:50:42.071Z,14.6
2018-07-25T03:51:43.602Z,14.7
2018-07-25T03:52:45.161Z,14.7
2018-07-25T03:53:46.720Z,14.6
2018-07-25T03:54:48.096Z,14.6
2018-07-25T03:55:49.655Z,14.5
2018-07-25T03:56:50.696Z,14.5
2018-07-25T03:57:51.399Z,14.5
2018-07-25T03:58:52.946Z,14.7
2018-07-25T03:59:54.482Z,14.6
2018-07-25T04:00:55.865Z,14.6
2018-07-25T04:01:57.301Z,14.7
2018-07-25T04:02:59.103Z,14.6
2018-07-25T04:04:00.665Z,14.5
2018-07-25T04:05:02.052Z,14.5
2018-07-25T04:06:03.278Z,14.5
2018-07-25T04:07:04.491Z,14.5
2018-07-25T04:08:05.700Z,14.5
2018-07-25T04:09:07.301Z,14.5
2018-07-25T04:10:09.059Z,14.4
2018-07-25T04:11:10.620Z,14.4
2018-07-25T04:12:11.483Z,14.5
2018-07-25T04:13:13.043Z,14.4
2018-07-25T04:14:14.261Z,14.5
2018-07-25T04:15:15.495Z,14.5
2018-07-25T04:16:17.040Z,14.5
2018-07-25T04:17:18.585Z,14.5
2018-07-25T04:18:20.142Z,14.5
2018-07-25T04:19:21.493Z,14.4
2018-07-25T04:20:22.881Z,14.4
2018-07-25T04:21:24.417Z,14.4
2018-07-25T04:22:25.851Z,14.4
2018-07-25T04:23:27.399Z,14.4
2018-07-25T04:24:28.963Z,14.4
2018-07-25T04:25:30.505Z,14.5
2018-07-25T04:26:31.719Z,14.3
2018-07-25T04:27:33.095Z,14.4
2018-07-25T04:28:34.315Z,14.5
2018-07-25T04:29:35.710Z,14.4
2018-07-25T04:30:37.108Z,14.4
2018-07-25T04:31:38.644Z,14.4
2018-07-25T04:32:40.188Z,14.5
2018-07-25T04:33:41.724Z,14.4
2018-07-25T04:34:43.334Z,14.4
2018-07-25T04:35:45.007Z,14.4
2018-07-25T04:36:46.548Z,14.5
2018-07-25T04:37:48.106Z,14.4
2018-07-25T04:38:49.644Z,14.4
2018-07-25T04:39:51.199Z,14.4
2018-07-25T04:40:52.751Z,14.5
2018-07-25T04:41:54.139Z,14.4
2018-07-25T04:42:55.511Z,14.4
2018-07-25T04:43:56.719Z,14.4
2018-07-25T04:44:57.939Z,14.4
2018-07-25T04:45:59.143Z,14.3
2018-07-25T04:47:00.841Z,14.4
2018-07-25T04:48:02.246Z,14.4
2018-07-25T04:49:03.634Z,14.4
2018-07-25T04:50:05.178Z,14.4
2018-07-25T04:51:06.407Z,14.5
2018-07-25T04:52:07.958Z,14.4
2018-07-25T04:53:09.369Z,14.4
2018-07-25T04:54:10.771Z,14.4
2018-07-25T04:55:12.139Z,14.4
2018-07-25T04:56:13.383Z,14.4
2018-07-25T04:57:15.358Z,14.5
2018-07-25T04:58:16.754Z,14.4
2018-07-25T04:59:18.134Z,14.4
2018-07-25T05:00:19.684Z,14.4
2018-07-25T05:01:21.235Z,14.4
2018-07-25T05:02:22.805Z,14.4
2018-07-25T05:03:24.186Z,14.4
2018-07-25T05:04:25.762Z,14.4
2018-07-25T05:05:27.146Z,14.4
2018-07-25T05:06:28.525Z,14.4
2018-07-25T05:07:30.070Z,14.4
2018-07-25T05:08:31.286Z,14.4
2018-07-25T05:09:32.655Z,14.3
2018-07-25T05:10:34.053Z,14.4
2018-07-25T05:11:35.432Z,14.4
2018-07-25T05:12:36.548Z,14.4
2018-07-25T05:13:38.600Z,14.4
2018-07-25T05:14:39.989Z,14.4
2018-07-25T05:15:41.580Z,14.4
2018-07-25T05:16:43.112Z,14.4
2018-07-25T05:17:44.677Z,14.4
2018-07-25T05:18:46.464Z,14.4
2018-07-25T05:19:47.843Z,14.4
2018-07-25T05:20:49.063Z,14.4
2018-07-25T05:21:50.434Z,14.4
2018-07-25T05:22:51.989Z,14.4
2018-07-25T05:23:53.548Z,14.4
2018-07-25T05:24:55.105Z,14.4
2018-07-25T05:25:56.488Z,14.4
2018-07-25T05:26:58.023Z,14.4
2018-07-25T05:27:59.406Z,14.4
2018-07-25T05:29:00.620Z,14.4
2018-07-25T05:30:02.205Z,14.4
2018-07-25T05:31:03.855Z,14.4
2018-07-25T05:32:05.082Z,14.4
2018-07-25T05:33:06.645Z,14.4
2018-07-25T05:34:08.038Z,14.4
2018-07-25T05:35:09.581Z,14.4
2018-07-25T05:36:11.151Z,14.4
2018-07-25T05:37:12.194Z,14.3
2018-07-25T05:38:13.810Z,14.4
2018-07-25T05:39:15.898Z,14.4
2018-07-25T05:40:17.445Z,14.3
2018-07-25T05:41:18.826Z,14.4
2018-07-25T05:42:20.217Z,14.4
2018-07-25T05:43:21.616Z,14.4
2018-07-25T05:44:23.149Z,14.4
2018-07-25T05:45:24.685Z,14.4
2018-07-25T05:46:25.893Z,14.4
2018-07-25T05:47:27.255Z,14.3
2018-07-25T05:48:28.644Z,14.4
2018-07-25T05:49:30.113Z,14.4
2018-07-25T05:50:32.128Z,14.4
2018-07-25T05:51:33.508Z,14.3
2018-07-25T05:52:35.049Z,14.4
2018-07-25T05:53:36.431Z,14.3
2018-07-25T05:54:37.646Z,14.4
2018-07-25T05:55:38.859Z,14.5
2018-07-25T05:56:40.411Z,14.4
2018-07-25T05:57:41.698Z,14.4
2018-07-25T05:58:43.271Z,14.3
2018-07-25T05:59:44.756Z,14.3
2018-07-25T06:00:46.305Z,14.4
2018-07-25T06:01:47.690Z,14.3
2018-07-25T06:02:49.140Z,14.4
2018-07-25T06:03:51.347Z,14.4
2018-07-25T06:04:52.563Z,14.4
2018-07-25T06:05:54.162Z,14.4
2018-07-25T06:06:55.974Z,14.4
2018-07-25T06:07:57.376Z,14.4
2018-07-25T06:08:58.756Z,14.3
2018-07-25T06:10:00.160Z,14.4
2018-07-25T06:11:01.732Z,14.3
2018-07-25T06:12:02.939Z,14.3
2018-07-25T06:13:04.506Z,14.4
2018-07-25T06:14:05.918Z,14.4
2018-07-25T06:15:07.356Z,14.4
2018-07-25T06:16:08.914Z,14.4
2018-07-25T06:17:10.130Z,14.4
2018-07-25T06:18:11.351Z,14.3
2018-07-25T06:19:12.766Z,14.4
2018-07-25T06:20:14.312Z,14.4
2018-07-25T06:21:15.521Z,14.4
2018-07-25T06:22:17.072Z,14.4
2018-07-25T06:23:18.311Z,14.4
2018-07-25T06:24:19.685Z,14.3
2018-07-25T06:25:21.237Z,14.4
2018-07-25T06:26:22.610Z,14.4
2018-07-25T06:27:23.988Z,14.3
2018-07-25T06:28:25.399Z,14.4
2018-07-25T06:29:26.801Z,14.4
2018-07-25T06:30:28.190Z,14.4
2018-07-25T06:31:29.563Z,14.4
2018-07-25T06:32:30.945Z,14.4
2018-07-25T06:33:32.333Z,14.3
2018-07-25T06:34:33.887Z,14.3
2018-07-25T06:35:35.445Z,14.4
2018-07-25T06:36:36.820Z,14.4
2018-07-25T06:37:38.037Z,14.4
2018-07-25T06:38:39.589Z,14.4
2018-07-25T06:39:40.806Z,14.4
2018-07-25T06:40:42.370Z,14.4
2018-07-25T06:41:43.922Z,14.4
2018-07-25T06:42:45.154Z,14.4
2018-07-25T06:43:46.444Z,14.3
2018-07-25T06:44:48.451Z,14.4
2018-07-25T06:45:49.835Z,14.4
2018-07-25T06:46:51.215Z,14.4
2018-07-25T06:47:52.772Z,14.4
2018-07-25T06:48:54.167Z,14.4
2018-07-25T06:49:55.395Z,14.4
2018-07-25T06:50:56.937Z,14.4
2018-07-25T06:51:58.484Z,14.4
2018-07-25T06:52:59.865Z,14.4
2018-07-25T06:54:01.466Z,14.4
2018-07-25T06:55:02.844Z,14.4
2018-07-25T06:56:04.248Z,14.4
2018-07-25T06:57:05.628Z,14.4
2018-07-25T06:58:06.834Z,14.4
2018-07-25T06:59:08.387Z,14.4
2018-07-25T07:00:09.766Z,14.3
2018-07-25T07:01:11.140Z,14.4
2018-07-25T07:02:12.218Z,14.4
2018-07-25T07:03:13.587Z,14.4
2018-07-25T07:04:15.143Z,14.3
2018-07-25T07:05:16.678Z,14.4
2018-07-25T07:06:17.721Z,14.3
2018-07-25T07:07:19.261Z,14.4
2018-07-25T07:08:20.827Z,14.4
2018-07-25T07:09:22.214Z,14.4
2018-07-25T07:10:23.449Z,14.4
2018-07-25T07:11:24.999Z,14.4
2018-07-25T07:12:26.544Z,14.4
2018-07-25T07:13:28.111Z,14.4
2018-07-25T07:14:29.155Z,14.3
2018-07-25T07:15:30.551Z,14.3
2018-07-25T07:16:32.108Z,14.4
2018-07-25T07:17:33.720Z,14.4
2018-07-25T07:18:35.213Z,14.4
2018-07-25T07:19:36.759Z,14.4
2018-07-25T07:20:38.298Z,14.4
2018-07-25T07:21:39.837Z,14.4
2018-07-25T07:22:41.383Z,14.4
2018-07-25T07:23:42.933Z,14.4
2018-07-25T07:24:44.298Z,14.4
2018-07-25T07:25:45.884Z,14.4
2018-07-25T07:26:47.824Z,14.5
2018-07-25T07:27:49.365Z,14.4
2018-07-25T07:28:50.753Z,14.5
2018-07-25T07:29:52.140Z,14.5
2018-07-25T07:30:53.515Z,14.5
2018-07-25T07:31:55.066Z,14.4
2018-07-25T07:32:56.606Z,14.4
2018-07-25T07:33:58.152Z,14.3
2018-07-25T07:34:59.713Z,14.4
2018-07-25T07:36:01.448Z,14.3
2018-07-25T07:37:03.003Z,14.4
2018-07-25T07:38:04.600Z,14.3
2018-07-25T07:39:05.986Z,14.4
2018-07-25T07:40:07.374Z,14.4
2018-07-25T07:41:08.762Z,14.4
2018-07-25T07:42:09.978Z,14.4
2018-07-25T07:43:11.536Z,14.4
2018-07-25T07:44:12.629Z,14.4
2018-07-25T07:45:14.447Z,14.4
2018-07-25T07:46:15.826Z,14.4
2018-07-25T07:47:17.260Z,14.3
2018-07-25T07:48:18.803Z,14.2
2018-07-25T07:49:20.020Z,14.3
2018-07-25T07:50:21.584Z,14.3
2018-07-25T07:51:22.964Z,14.4
2018-07-25T07:52:24.346Z,14.3
2018-07-25T07:53:25.562Z,14.4
2018-07-25T07:54:26.968Z,14.3
2018-07-25T07:55:28.363Z,14.3
2018-07-25T07:56:29.733Z,14.3
2018-07-25T07:57:30.949Z,14.3
2018-07-25T07:58:32.353Z,14.3
2018-07-25T07:59:33.883Z,14.3
2018-07-25T08:00:35.270Z,14.4
2018-07-25T08:01:36.658Z,14.4
2018-07-25T08:02:38.201Z,14.4
2018-07-25T08:03:39.752Z,14.4
2018-07-25T08:04:41.136Z,14.4
2018-07-25T08:05:42.527Z,14.4
2018-07-25T08:06:44.073Z,14.4
2018-07-25T08:07:45.288Z,14.3
2018-07-25T08:08:46.502Z,14.4
2018-07-25T08:09:47.884Z,14.4
2018-07-25T08:10:49.282Z,14.4
2018-07-25T08:11:50.508Z,14.4
2018-07-25T08:12:51.886Z,14.4
2018-07-25T08:13:53.450Z,14.2
2018-07-25T08:14:55.010Z,14.4
2018-07-25T08:15:56.266Z,14.4
2018-07-25T08:16:57.829Z,14.4
2018-07-25T08:17:59.441Z,14.4
2018-07-25T08:19:01.645Z,14.4
2018-07-25T08:20:03.453Z,14.4
2018-07-25T08:21:05.037Z,14.4
2018-07-25T08:22:07.080Z,14.4
2018-07-25T08:23:08.446Z,14.3
2018-07-25T08:24:09.518Z,14.4
2018-07-25T08:25:11.074Z,14.4
2018-07-25T08:26:12.286Z,14.2
2018-07-25T08:27:13.679Z,14.3
2018-07-25T08:28:15.229Z,14.3
2018-07-25T08:29:16.799Z,14.3
2018-07-25T08:30:18.195Z,14.3
2018-07-25T08:31:19.622Z,14.3
2018-07-25T08:32:21.015Z,14.3
2018-07-25T08:33:22.563Z,14.3
2018-07-25T08:34:24.116Z,14.3
2018-07-25T08:35:25.721Z,14.4
2018-07-25T08:36:27.105Z,14.4
2018-07-25T08:37:28.493Z,14.3
2018-07-25T08:38:29.889Z,14.3
2018-07-25T08:39:31.468Z,14.3
2018-07-25T08:40:32.872Z,14.4
2018-07-25T08:41:34.448Z,14.3
2018-07-25T08:42:36.054Z,14.3
2018-07-25T08:43:37.616Z,14.2
2018-07-25T08:44:39.162Z,14.2
2018-07-25T08:45:40.709Z,14.4
2018-07-25T08:46:42.153Z,14.3
2018-07-25T08:47:43.570Z,14.2
2018-07-25T08:48:44.944Z,14.4
2018-07-25T08:49:46.340Z,14.3
2018-07-25T08:50:47.887Z,14.3
2018-07-25T08:51:49.262Z,14.4
2018-07-25T08:52:50.664Z,14.4
2018-07-25T08:53:52.667Z,14.3
2018-07-25T08:54:54.050Z,14.4
2018-07-25T08:55:55.450Z,14.2
2018-07-25T08:56:56.823Z,14.4
2018-07-25T08:57:58.214Z,14.4
2018-07-25T08:58:59.593Z,14.3
2018-07-25T09:00:01.131Z,14.4
2018-07-25T09:01:02.687Z,14.4
2018-07-25T09:02:04.249Z,14.3
2018-07-25T09:03:05.653Z,14.3
2018-07-25T09:04:07.204Z,14.3
2018-07-25T09:05:08.593Z,14.4
2018-07-25T09:06:09.978Z,14.3
2018-07-25T09:07:11.195Z,14.3
2018-07-25T09:08:12.734Z,14.2
2018-07-25T09:09:14.284Z,14.4
2018-07-25T09:10:15.679Z,14.4
2018-07-25T09:11:17.245Z,14.3
2018-07-25T09:12:18.629Z,14.3
2018-07-25T09:13:19.857Z,14.3
2018-07-25T09:14:21.235Z,14.2
2018-07-25T09:15:22.622Z,14.4
2018-07-25T09:16:24.025Z,14.3
2018-07-25T09:17:25.241Z,14.3
2018-07-25T09:18:26.781Z,14.4
2018-07-25T09:19:28.330Z,14.3
2018-07-25T09:20:29.396Z,14.4
2018-07-25T09:21:30.449Z,14.3
2018-07-25T09:22:31.837Z,14.2
2018-07-25T09:23:33.404Z,14.4
2018-07-25T09:24:34.795Z,14.3
2018-07-25T09:25:36.266Z,14.3
2018-07-25T09:26:38.547Z,14.3
2018-07-25T09:27:40.147Z,14.3
2018-07-25T09:28:41.595Z,14.3
2018-07-25T09:29:43.033Z,14.4
2018-07-25T09:30:44.636Z,14.3
2018-07-25T09:31:46.256Z,14.3
2018-07-25T09:32:47.692Z,14.4
2018-07-25T09:33:51.766Z,14.4
2018-07-25T09:34:53.445Z,14.4
2018-07-25T09:35:54.865Z,14.3
2018-07-25T09:36:56.315Z,14.2
2018-07-25T09:37:57.927Z,14.4
2018-07-25T09:38:59.198Z,14.3
2018-07-25T09:40:00.879Z,14.2
2018-07-25T09:41:02.684Z,14.2
2018-07-25T09:42:04.788Z,14.4
2018-07-25T09:43:08.040Z,14.3
2018-07-25T09:44:09.511Z,14.3
2018-07-25T09:45:10.977Z,14.4
2018-07-25T09:46:12.693Z,14.3
2018-07-25T09:47:14.392Z,14.4
2018-07-25T09:48:16.034Z,14.2
2018-07-25T09:49:17.769Z,14.3
2018-07-25T09:50:19.444Z,14.3
2018-07-25T09:51:21.170Z,14.3
2018-07-25T09:52:25.886Z,14.2
2018-07-25T09:53:27.589Z,14.2
2018-07-25T09:54:29.232Z,14.3
2018-07-25T09:55:30.710Z,14.2
2018-07-25T09:56:32.219Z,14.2
2018-07-25T09:57:33.733Z,14.2
2018-07-25T09:58:35.377Z,14.3
2018-07-25T09:59:37.016Z,14.2
2018-07-25T10:00:38.503Z,14.2
2018-07-25T10:01:42.593Z,14.2
2018-07-25T10:02:44.714Z,14.3
2018-07-25T10:03:46.426Z,14.2
2018-07-25T10:04:48.031Z,14.3
2018-07-25T10:05:49.780Z,14.2
2018-07-25T10:06:51.566Z,14.3
2018-07-25T10:07:53.260Z,14.3
2018-07-25T10:08:54.705Z,14.4
2018-07-25T10:09:56.297Z,14.3
2018-07-25T10:10:57.882Z,14.2
2018-07-25T10:12:01.425Z,14.2
2018-07-25T10:13:03.070Z,14.3
2018-07-25T10:14:04.679Z,14.2
2018-07-25T10:15:06.277Z,14.3
2018-07-25T10:16:08.682Z,14.4
2018-07-25T10:17:10.075Z,14.3
2018-07-25T10:18:11.537Z,14.2
2018-07-25T10:19:13.169Z,14.2
2018-07-25T10:20:14.257Z,14.2
2018-07-25T10:21:18.261Z,14.2
2018-07-25T10:22:20.010Z,14.3
2018-07-25T10:23:21.726Z,14.3
2018-07-25T10:24:23.253Z,14.2
2018-07-25T10:25:24.803Z,14.3
2018-07-25T10:26:26.306Z,14.2
2018-07-25T10:27:28.134Z,14.4
2018-07-25T10:28:30.480Z,14.4
2018-07-25T10:29:31.938Z,14.4
2018-07-25T10:30:35.185Z,14.4
2018-07-25T10:31:37.606Z,14.4
2018-07-25T10:32:39.149Z,14.4
2018-07-25T10:33:40.868Z,14.4
2018-07-25T10:34:42.601Z,14.4
2018-07-25T10:35:44.111Z,14.4
2018-07-25T10:36:45.779Z,14.4
2018-07-25T10:37:47.455Z,14.3
2018-07-25T10:38:48.881Z,14.3
2018-07-25T10:39:50.346Z,14.3
2018-07-25T10:40:53.873Z,14.2
2018-07-25T10:41:55.306Z,14.2
2018-07-25T10:42:56.595Z,14.3
2018-07-25T10:43:58.221Z,14.4
2018-07-25T10:44:59.828Z,14.3
2018-07-25T10:46:01.507Z,14.3
2018-07-25T10:47:03.153Z,14.2
2018-07-25T10:48:04.404Z,14.2
2018-07-25T10:49:05.843Z,14.2
2018-07-25T10:50:09.755Z,14.3
2018-07-25T10:51:11.400Z,14.3
2018-07-25T10:52:13.028Z,14.3
2018-07-25T10:53:14.684Z,14.4
2018-07-25T10:54:16.311Z,14.3
2018-07-25T10:55:17.735Z,14.2
2018-07-25T10:56:19.374Z,14.2
2018-07-25T10:57:20.616Z,14.2
2018-07-25T10:58:22.233Z,14.2
2018-07-25T10:59:24.595Z,14.2
2018-07-25T11:00:27.820Z,14.3
2018-07-25T11:01:29.511Z,14.3
2018-07-25T11:02:31.025Z,14.2
2018-07-25T11:03:32.700Z,14.3
2018-07-25T11:04:34.385Z,14.2
2018-07-25T11:05:36.039Z,14.2
2018-07-25T11:06:37.571Z,14.3
2018-07-25T11:07:39.116Z,14.3
2018-07-25T11:08:40.716Z,14.3
2018-07-25T11:09:45.889Z,14.2
2018-07-25T11:10:47.957Z,14.2
2018-07-25T11:11:49.353Z,14.3
2018-07-25T11:12:50.738Z,14.2
2018-07-25T11:13:52.357Z,14.2
2018-07-25T11:14:53.790Z,14.2
2018-07-25T11:15:55.407Z,14.4
2018-07-25T11:16:57.130Z,14.4
2018-07-25T11:17:58.742Z,14.3
2018-07-25T11:19:00.178Z,14.4
2018-07-25T11:20:02.001Z,14.4
2018-07-25T11:21:05.575Z,14.3
2018-07-25T11:22:07.200Z,14.2
2018-07-25T11:23:08.515Z,14.3
2018-07-25T11:24:10.967Z,14.4
2018-07-25T11:25:12.607Z,14.2
2018-07-25T11:26:14.220Z,14.2
2018-07-25T11:27:15.673Z,14.3
2018-07-25T11:28:17.293Z,14.2
2018-07-25T11:29:18.936Z,14.2
2018-07-25T11:30:20.322Z,14.2
2018-07-25T11:31:21.868Z,14.4
2018-07-25T11:32:23.422Z,14.2
2018-07-25T11:33:24.955Z,14.3
2018-07-25T11:34:26.001Z,14.3
2018-07-25T11:35:27.571Z,14.3
2018-07-25T11:36:28.974Z,14.2
2018-07-25T11:37:30.356Z,14.3
2018-07-25T11:38:31.590Z,14.2
2018-07-25T11:39:33.194Z,14.3
2018-07-25T11:40:34.749Z,14.2
2018-07-25T11:41:36.326Z,14.2
2018-07-25T11:42:37.879Z,14.3
2018-07-25T11:43:39.293Z,14.3
2018-07-25T11:44:41.035Z,14.3
2018-07-25T11:45:42.602Z,14.2
2018-07-25T11:46:44.166Z,14.2
2018-07-25T11:47:45.750Z,14.2
2018-07-25T11:48:46.971Z,14.2
2018-07-25T11:49:48.408Z,14.3
2018-07-25T11:50:49.625Z,14.2
2018-07-25T11:51:51.029Z,14.4
2018-07-25T11:52:52.439Z,14.2
2018-07-25T11:53:53.986Z,14.2
2018-07-25T11:54:55.547Z,14.2
2018-07-25T11:55:57.111Z,14.1
2018-07-25T11:56:58.335Z,14.1
2018-07-25T11:57:59.898Z,14.2
2018-07-25T11:59:01.287Z,14.2
2018-07-25T12:00:02.876Z,14.1
2018-07-25T12:01:04.344Z,14.2
2018-07-25T12:02:06.071Z,14.2
2018-07-25T12:03:07.458Z,14.1
2018-07-25T12:04:09.041Z,14.2
2018-07-25T12:05:10.623Z,14.2
2018-07-25T12:06:12.175Z,14.2
2018-07-25T12:07:13.431Z,14.1
2018-07-25T12:08:15.127Z,14.2
2018-07-25T12:09:19.830Z,14.2
2018-07-25T12:10:21.322Z,14.2
2018-07-25T12:11:23.026Z,14.1
2018-07-25T12:12:24.698Z,14.2
2018-07-25T12:13:26.217Z,14.2
2018-07-25T12:14:27.515Z,14.1
2018-07-25T12:15:28.847Z,14.1
2018-07-25T12:16:30.459Z,14.2
2018-07-25T12:17:31.914Z,14.1
2018-07-25T12:18:35.189Z,14.2
2018-07-25T12:19:37.058Z,14.1
2018-07-25T12:20:38.686Z,14.2
2018-07-25T12:21:40.358Z,14.2
2018-07-25T12:22:42.026Z,14.1
2018-07-25T12:23:43.579Z,14.2
2018-07-25T12:24:45.291Z,14.2
2018-07-25T12:25:46.786Z,14.1
2018-07-25T12:26:48.530Z,14.2
2018-07-25T12:27:51.984Z,14.2
2018-07-25T12:28:56.068Z,14.3
2018-07-25T12:29:57.384Z,14.2
2018-07-25T12:30:59.097Z,14.2
2018-07-25T12:32:00.619Z,14.3
2018-07-25T12:33:01.934Z,14.2
2018-07-25T12:34:03.595Z,14.2
2018-07-25T12:35:05.164Z,14.2
2018-07-25T12:36:06.689Z,14.3
2018-07-25T12:37:09.278Z,14.2
2018-07-25T12:38:12.999Z,14.2
2018-07-25T12:39:14.465Z,14.2
2018-07-25T12:40:16.136Z,14.3
2018-07-25T12:41:17.625Z,14.2
2018-07-25T12:42:19.105Z,14.3
2018-07-25T12:43:20.765Z,14.3
2018-07-25T12:44:22.455Z,14.2
2018-07-25T12:45:23.934Z,14.3
2018-07-25T12:46:25.940Z,14.2
2018-07-25T12:47:28.882Z,14.2
2018-07-25T12:48:30.263Z,14.2
2018-07-25T12:49:32.374Z,14.3
2018-07-25T12:50:33.899Z,14.2
2018-07-25T12:51:35.551Z,14.2
2018-07-25T12:52:37.228Z,14.2
2018-07-25T12:53:38.708Z,14.2
2018-07-25T12:54:40.612Z,14.2
2018-07-25T12:55:42.318Z,14.3
2018-07-25T12:56:47.381Z,14.2
2018-07-25T12:57:49.083Z,14.2
2018-07-25T12:58:50.773Z,14.2
2018-07-25T12:59:52.424Z,14.4
2018-07-25T13:00:53.904Z,14.3
2018-07-25T13:01:55.227Z,14.2
2018-07-25T13:02:56.855Z,14.2
2018-07-25T13:03:58.146Z,14.2
2018-07-25T13:04:59.625Z,14.2
2018-07-25T13:06:03.996Z,14.2
2018-07-25T13:07:05.723Z,14.2
2018-07-25T13:08:07.426Z,14.2
2018-07-25T13:09:09.202Z,14.3
2018-07-25T13:10:11.360Z,14.2
2018-07-25T13:11:12.854Z,14.2
2018-07-25T13:12:14.318Z,14.2
2018-07-25T13:13:15.960Z,14.2
2018-07-25T13:14:17.315Z,14.2
2018-07-25T13:15:20.132Z,14.2
2018-07-25T13:16:23.413Z,14.3
2018-07-25T13:17:24.876Z,14.2
2018-07-25T13:18:26.609Z,14.2
2018-07-25T13:19:28.137Z,14.2
2018-07-25T13:20:29.630Z,14.3
2018-07-25T13:21:30.904Z,14.2
2018-07-25T13:22:32.590Z,14.1
2018-07-25T13:23:34.306Z,14.2
2018-07-25T13:24:35.790Z,14.2
2018-07-25T13:25:40.664Z,14.2
2018-07-25T13:26:42.328Z,14.2
2018-07-25T13:27:44.030Z,14.2
2018-07-25T13:28:45.546Z,14.3
2018-07-25T13:29:47.477Z,14.2
2018-07-25T13:30:48.826Z,14.2
2018-07-25T13:31:50.499Z,14.3
2018-07-25T13:32:51.811Z,14.2
2018-07-25T13:33:53.474Z,14.1
2018-07-25T13:34:56.926Z,14.2
2018-07-25T13:35:58.701Z,14.1
2018-07-25T13:37:00.772Z,14.2
2018-07-25T13:38:03.263Z,14.2
2018-07-25T13:39:04.752Z,14.2